createdAt,value
2023-02-14T00:00:57.770Z,12.97
2023-02-14T00:03:24.827Z,12.57
2023-02-14T00:05:51.622Z,13.60
2023-02-14T00:08:18.410Z,13.43
2023-02-14T00:10:45.175Z,15.57
2023-02-14T00:13:11.976Z,12.03
2023-02-14T00:15:38.749Z,11.47
2023-02-14T00:18:06.282Z,13.57
2023-02-14T00:20:33.060Z,16.30
2023-02-14T00:23:01.096Z,14.73
2023-02-14T00:25:27.933Z,13.90
2023-02-14T00:27:55.671Z,9.53
2023-02-14T00:30:22.950Z,13.00
2023-02-14T00:32:50.068Z,10.90
2023-02-14T00:35:17.051Z,13.70
2023-02-14T00:37:45.337Z,10.13
2023-02-14T00:40:12.394Z,8.73
2023-02-14T00:42:39.304Z,12.67
2023-02-14T00:45:06.378Z,11.20
2023-02-14T00:47:33.577Z,10.13
2023-02-14T00:50:04.393Z,11.77
2023-02-14T00:52:31.412Z,10.97
2023-02-14T00:54:58.693Z,11.87
2023-02-14T00:57:25.590Z,9.77
2023-02-14T00:59:52.405Z,13.17
2023-02-14T01:02:19.346Z,13.90
2023-02-14T01:04:46.215Z,14.00
2023-02-14T01:07:13.091Z,12.43
2023-02-14T01:09:39.865Z,12.97
2023-02-14T01:12:07.003Z,14.00
2023-02-14T01:14:33.790Z,10.70
2023-02-14T01:17:00.575Z,13.60
2023-02-14T01:19:27.397Z,14.53
2023-02-14T01:21:54.182Z,12.20
2023-02-14T01:24:21.497Z,11.77
2023-02-14T01:26:48.256Z,13.10
2023-02-14T01:29:15.046Z,12.13
2023-02-14T01:31:42.105Z,11.63
2023-02-14T01:34:08.962Z,12.70
2023-02-14T01:36:38.882Z,13.53
2023-02-14T01:39:13.669Z,13.73
2023-02-14T01:41:42.243Z,13.23
2023-02-14T01:44:29.100Z,15.63
2023-02-14T01:46:56.700Z,18.03
2023-02-14T01:49:32.474Z,15.37
2023-02-14T01:52:20.228Z,12.57
2023-02-14T01:54:57.906Z,17.60
2023-02-14T01:57:31.955Z,16.70
2023-02-14T02:00:20.647Z,14.27
2023-02-14T02:02:47.605Z,16.53
2023-02-14T02:05:15.856Z,19.93
2023-02-14T02:07:42.948Z,15.87
2023-02-14T02:10:10.147Z,16.47
2023-02-14T02:12:38.211Z,17.73
2023-02-14T02:15:06.579Z,17.67
2023-02-14T02:18:10.938Z,13.63
2023-02-14T02:20:49.585Z,20.20
2023-02-14T02:23:35.691Z,17.10
2023-02-14T02:26:27.886Z,17.70
2023-02-14T02:29:16.767Z,18.23
2023-02-14T02:31:59.793Z,19.53
2023-02-14T02:34:34.091Z,16.57
2023-02-14T02:37:04.623Z,17.87
2023-02-14T02:39:43.433Z,19.47
2023-02-14T02:42:25.190Z,18.40
2023-02-14T02:45:06.570Z,16.43
2023-02-14T02:47:44.671Z,18.87
2023-02-14T02:51:00.262Z,16.23
2023-02-14T02:53:44.335Z,15.47
2023-02-14T02:56:45.930Z,20.40
2023-02-14T02:59:28.363Z,15.33
2023-02-14T03:02:11.134Z,20.00
2023-02-14T03:04:54.550Z,21.30
2023-02-14T03:07:36.472Z,21.10
2023-02-14T03:10:07.745Z,14.90
2023-02-14T03:12:34.456Z,17.17
2023-02-14T03:15:09.961Z,17.33
2023-02-14T03:17:57.008Z,17.60
2023-02-14T03:20:43.836Z,17.73
2023-02-14T03:23:24.682Z,17.73
2023-02-14T03:26:19.531Z,18.03
2023-02-14T03:28:54.601Z,16.97
2023-02-14T03:31:28.154Z,16.63
2023-02-14T03:34:19.969Z,17.27
2023-02-14T03:36:56.929Z,18.27
2023-02-14T03:40:06.305Z,15.10
2023-02-14T03:42:40.371Z,19.90
2023-02-14T03:45:12.119Z,15.40
2023-02-14T03:47:43.206Z,18.53
2023-02-14T03:50:16.860Z,17.73
2023-02-14T03:52:45.766Z,19.20
2023-02-14T03:55:16.731Z,19.57
2023-02-14T03:58:06.524Z,23.93
2023-02-14T04:00:37.711Z,15.53
2023-02-14T04:03:11.856Z,17.20
2023-02-14T04:05:43.597Z,16.37
2023-02-14T04:08:12.278Z,17.50
2023-02-14T04:10:40.218Z,16.13
2023-02-14T04:13:07.113Z,22.60
2023-02-14T04:15:34.063Z,18.23
2023-02-14T04:18:19.552Z,18.63
2023-02-14T04:20:46.386Z,21.13
2023-02-14T04:23:13.298Z,17.50
2023-02-14T04:25:42.976Z,18.77
2023-02-14T04:28:09.893Z,21.33
2023-02-14T04:30:36.738Z,18.90
2023-02-14T04:33:04.157Z,18.80
2023-02-14T04:35:31.455Z,19.17
2023-02-14T04:37:58.232Z,20.00
2023-02-14T04:40:25.038Z,21.40
2023-02-14T04:42:51.835Z,19.20
2023-02-14T04:45:18.730Z,18.63
2023-02-14T04:47:46.066Z,19.50
2023-02-14T04:50:13.901Z,17.37
2023-02-14T04:52:41.416Z,18.80
2023-02-14T04:55:09.492Z,22.13
2023-02-14T04:57:36.646Z,20.03
2023-02-14T05:00:05.085Z,18.70
2023-02-14T05:02:31.931Z,18.87
2023-02-14T05:04:58.704Z,24.73
2023-02-14T05:07:25.579Z,20.47
2023-02-14T05:09:52.334Z,17.87
2023-02-14T05:12:19.162Z,21.03
2023-02-14T05:14:46.944Z,22.80
2023-02-14T05:17:13.879Z,19.37
2023-02-14T05:19:40.687Z,21.50
2023-02-14T05:22:39.941Z,17.13
2023-02-14T05:25:07.055Z,21.13
2023-02-14T05:27:33.841Z,18.10
2023-02-14T05:30:03.872Z,19.43
2023-02-14T05:32:30.673Z,20.43
2023-02-14T05:34:58.057Z,19.73
2023-02-14T05:37:25.747Z,20.77
2023-02-14T05:39:52.522Z,17.70
2023-02-14T05:42:19.513Z,23.07
2023-02-14T05:44:46.299Z,21.10
2023-02-14T05:47:13.323Z,20.40
2023-02-14T05:49:40.369Z,22.90
2023-02-14T05:52:07.517Z,16.63
2023-02-14T05:54:34.400Z,24.23
2023-02-14T05:57:01.237Z,23.90
2023-02-14T05:59:28.171Z,21.97
2023-02-14T06:01:55.026Z,22.10
2023-02-14T06:04:21.959Z,27.27
2023-02-14T06:06:48.924Z,21.20
2023-02-14T06:09:15.775Z,26.40
2023-02-14T06:11:42.638Z,23.27
2023-02-14T06:14:09.508Z,25.40
2023-02-14T06:16:36.535Z,25.20
2023-02-14T06:19:03.428Z,25.07
2023-02-14T06:21:30.283Z,24.93
2023-02-14T06:23:57.170Z,23.97
2023-02-14T06:26:27.847Z,24.27
2023-02-14T06:28:55.661Z,25.70
2023-02-14T06:31:22.652Z,27.17
2023-02-14T06:33:49.470Z,60.53
2023-02-14T06:36:16.856Z,33.17
2023-02-14T06:38:43.894Z,52.40
2023-02-14T06:41:11.769Z,37.30
2023-02-14T06:43:38.718Z,95.53
2023-02-14T06:46:05.993Z,50.30
2023-02-14T06:48:32.860Z,52.70
2023-02-14T06:50:59.929Z,47.97
2023-02-14T06:53:27.630Z,28.27
2023-02-14T06:55:54.486Z,146.83
2023-02-14T06:58:21.704Z,21.90
2023-02-14T07:00:48.566Z,24.30
2023-02-14T07:03:15.883Z,23.93
2023-02-14T07:05:45.186Z,26.30
2023-02-14T07:08:12.011Z,22.93
2023-02-14T07:10:38.935Z,23.17
2023-02-14T07:13:05.923Z,25.13
2023-02-14T07:15:32.966Z,24.30
2023-02-14T07:17:59.849Z,21.27
2023-02-14T07:20:26.977Z,24.10
2023-02-14T07:22:55.097Z,26.13
2023-02-14T07:25:22.160Z,21.53
2023-02-14T07:27:48.989Z,22.30
2023-02-14T07:30:16.136Z,23.37
2023-02-14T07:32:43.003Z,28.23
2023-02-14T07:35:10.450Z,22.20
2023-02-14T07:37:37.320Z,21.57
2023-02-14T07:40:14.331Z,23.97
2023-02-14T07:42:42.751Z,21.87
2023-02-14T07:45:21.294Z,21.37
2023-02-14T07:47:53.491Z,21.70
2023-02-14T07:50:22.335Z,22.77
2023-02-14T07:52:49.121Z,20.30
2023-02-14T07:55:16.474Z,21.73
2023-02-14T07:57:43.317Z,23.17
2023-02-14T08:00:10.530Z,24.70
2023-02-14T08:02:37.395Z,21.90
2023-02-14T08:05:04.369Z,25.80
2023-02-14T08:07:31.148Z,24.43
2023-02-14T08:09:58.048Z,23.20
2023-02-14T08:12:43.381Z,26.40
2023-02-14T08:15:28.709Z,22.90
2023-02-14T08:17:57.214Z,23.50
2023-02-14T08:20:24.005Z,23.47
2023-02-14T08:22:50.840Z,21.53
2023-02-14T08:25:17.779Z,24.63
2023-02-14T08:27:44.574Z,25.23
2023-02-14T08:30:11.975Z,22.70
2023-02-14T08:32:39.027Z,23.47
2023-02-14T08:35:06.612Z,25.07
2023-02-14T08:37:33.429Z,23.40
2023-02-14T08:40:00.256Z,20.87
2023-02-14T08:42:27.188Z,23.00
2023-02-14T08:44:53.999Z,20.80
2023-02-14T08:47:20.848Z,22.47
2023-02-14T08:49:47.842Z,22.47
2023-02-14T08:52:14.868Z,24.23
2023-02-14T08:54:41.804Z,19.13
2023-02-14T08:57:08.700Z,22.90
2023-02-14T08:59:35.565Z,19.27
2023-02-14T09:02:02.483Z,19.50
2023-02-14T09:04:29.418Z,22.13
2023-02-14T09:06:56.319Z,23.53
2023-02-14T09:09:23.204Z,18.10
2023-02-14T09:11:50.033Z,20.80
2023-02-14T09:14:17.297Z,19.77
2023-02-14T09:16:44.209Z,23.23
2023-02-14T09:19:11.675Z,21.77
2023-02-14T09:21:38.512Z,21.97
2023-02-14T09:24:05.345Z,19.57
2023-02-14T09:26:32.749Z,21.47
2023-02-14T09:28:59.550Z,22.47
2023-02-14T09:31:26.499Z,24.07
2023-02-14T09:34:11.950Z,25.20
2023-02-14T09:36:38.866Z,18.77
2023-02-14T09:39:05.897Z,22.70
2023-02-14T09:42:08.198Z,19.17
2023-02-14T09:44:44.317Z,23.30
2023-02-14T09:47:42.148Z,19.77
2023-02-14T09:50:19.211Z,21.83
2023-02-14T09:52:50.731Z,18.93
2023-02-14T09:55:18.411Z,20.73
2023-02-14T09:58:10.967Z,20.10
2023-02-14T10:00:53.207Z,19.90
2023-02-14T10:03:38.905Z,22.50
2023-02-14T10:06:26.194Z,19.60
2023-02-14T10:09:07.744Z,19.07
2023-02-14T10:11:35.355Z,18.60
2023-02-14T10:14:09.888Z,19.97
2023-02-14T10:17:12.582Z,20.30
2023-02-14T10:19:52.337Z,21.00
2023-02-14T10:22:23.872Z,17.87
2023-02-14T10:25:02.360Z,21.10
2023-02-14T10:27:36.552Z,22.07
2023-02-14T10:30:16.410Z,18.77
2023-02-14T10:32:49.133Z,19.53
2023-02-14T10:35:30.009Z,21.33
2023-02-14T10:38:17.449Z,18.63
2023-02-14T10:40:49.233Z,18.67
2023-02-14T10:44:01.803Z,21.03
2023-02-14T10:46:31.386Z,19.20
2023-02-14T10:49:24.310Z,19.43
2023-02-14T10:52:09.876Z,17.63
2023-02-14T10:54:43.831Z,17.57
2023-02-14T10:57:26.981Z,18.90
2023-02-14T11:00:10.961Z,18.37
2023-02-14T11:02:44.994Z,19.20
2023-02-14T11:05:31.552Z,20.97
2023-02-14T11:07:59.182Z,18.90
2023-02-14T11:10:30.913Z,21.80
2023-02-14T11:12:59.503Z,17.67
2023-02-14T11:15:35.861Z,22.13
2023-02-14T11:18:23.373Z,22.87
2023-02-14T11:21:11.774Z,21.33
2023-02-14T11:23:47.193Z,18.23
2023-02-14T11:26:25.043Z,21.27
2023-02-14T11:29:10.922Z,21.90
2023-02-14T11:31:39.710Z,18.73
2023-02-14T11:34:46.618Z,19.63
2023-02-14T11:37:23.004Z,19.80
2023-02-14T11:39:51.663Z,18.27
2023-02-14T11:42:47.741Z,18.73
2023-02-14T11:45:54.937Z,20.37
2023-02-14T11:48:37.384Z,17.57
2023-02-14T11:51:16.472Z,18.77
2023-02-14T11:53:48.554Z,20.80
2023-02-14T11:56:18.161Z,20.97
2023-02-14T11:58:45.068Z,19.07
2023-02-14T12:01:22.130Z,20.87
2023-02-14T12:03:49.906Z,19.20
2023-02-14T12:06:31.322Z,19.73
2023-02-14T12:09:23.026Z,20.07
2023-02-14T12:12:01.104Z,21.87
2023-02-14T12:14:33.476Z,20.80
2023-02-14T12:17:26.560Z,18.90
2023-02-14T12:20:19.625Z,17.53
2023-02-14T12:22:55.319Z,17.30
2023-02-14T12:25:34.196Z,19.67
2023-02-14T12:28:07.563Z,19.10
2023-02-14T12:30:35.483Z,20.87
2023-02-14T12:33:02.515Z,19.10
2023-02-14T12:35:44.288Z,18.53
2023-02-14T12:38:37.214Z,19.70
2023-02-14T12:41:31.699Z,19.67
2023-02-14T12:44:15.869Z,19.40
2023-02-14T12:46:55.672Z,19.30
2023-02-14T12:49:28.554Z,20.33
2023-02-14T12:52:10.792Z,21.73
2023-02-14T12:55:15.027Z,19.50
2023-02-14T12:57:56.548Z,21.07
2023-02-14T13:00:42.220Z,17.70
2023-02-14T13:03:18.007Z,20.43
2023-02-14T13:06:09.042Z,18.80
2023-02-14T13:09:11.683Z,20.53
2023-02-14T13:11:53.904Z,21.53
2023-02-14T13:14:45.386Z,17.37
2023-02-14T13:17:36.860Z,21.10
2023-02-14T13:20:32.289Z,22.33
2023-02-14T13:23:05.105Z,18.73
2023-02-14T13:25:49.846Z,22.37
2023-02-14T13:28:17.756Z,19.00
2023-02-14T13:30:44.813Z,17.27
2023-02-14T13:33:28.644Z,19.07
2023-02-14T13:36:00.271Z,22.33
2023-02-14T13:38:28.297Z,18.47
2023-02-14T13:40:57.745Z,21.90
2023-02-14T13:43:49.534Z,19.73
2023-02-14T13:46:20.231Z,18.30
2023-02-14T13:49:03.890Z,19.67
2023-02-14T13:52:03.800Z,22.30
2023-02-14T13:54:35.854Z,18.73
2023-02-14T13:57:25.009Z,20.70
2023-02-14T14:00:13.650Z,20.90
2023-02-14T14:02:51.272Z,18.87
2023-02-14T14:05:30.615Z,21.43
2023-02-14T14:08:27.138Z,19.30
2023-02-14T14:10:55.463Z,18.37
2023-02-14T14:13:40.691Z,16.77
2023-02-14T14:16:28.974Z,24.43
2023-02-14T14:19:23.891Z,22.63
2023-02-14T14:22:20.902Z,19.03
2023-02-14T14:25:10.485Z,19.20
2023-02-14T14:27:47.143Z,21.20
2023-02-14T14:30:30.844Z,21.00
2023-02-14T14:33:17.005Z,21.20
2023-02-14T14:36:02.669Z,23.27
2023-02-14T14:38:31.857Z,22.23
2023-02-14T14:41:00.831Z,24.77
2023-02-14T14:43:38.110Z,29.67
2023-02-14T14:46:10.814Z,26.83
2023-02-14T14:48:46.392Z,26.60
2023-02-14T14:51:21.907Z,27.70
2023-02-14T14:54:07.502Z,27.90
2023-02-14T14:56:44.749Z,28.80
2023-02-14T14:59:27.673Z,29.37
2023-02-14T15:01:55.154Z,29.97
2023-02-14T15:04:28.776Z,29.93
2023-02-14T15:07:32.888Z,29.37
2023-02-14T15:10:06.418Z,32.23
2023-02-14T15:12:53.589Z,34.57
2023-02-14T15:15:20.418Z,32.17
2023-02-14T15:17:47.543Z,33.00
2023-02-14T15:20:21.877Z,32.87
2023-02-14T15:22:52.058Z,33.60
2023-02-14T15:25:35.813Z,31.73
2023-02-14T15:28:03.624Z,34.10
2023-02-14T15:30:38.069Z,33.73
2023-02-14T15:33:08.351Z,32.03
2023-02-14T15:35:42.302Z,33.23
2023-02-14T15:38:11.959Z,31.47
2023-02-14T15:40:40.359Z,33.93
2023-02-14T15:43:19.546Z,31.00
2023-02-14T15:45:48.738Z,35.80
2023-02-14T15:48:19.455Z,33.90
2023-02-14T15:50:52.910Z,33.80
2023-02-14T15:53:19.653Z,33.20
2023-02-14T15:55:51.534Z,35.40
2023-02-14T15:58:33.060Z,32.67
2023-02-14T16:01:00.373Z,35.80
2023-02-14T16:03:33.828Z,38.27
2023-02-14T16:06:00.851Z,37.17
2023-02-14T16:08:33.601Z,40.83
2023-02-14T16:11:05.143Z,39.37
2023-02-14T16:13:34.982Z,40.27
2023-02-14T16:16:04.869Z,39.00
2023-02-14T16:18:45.219Z,38.30
2023-02-14T16:21:31.463Z,37.77
2023-02-14T16:24:18.775Z,40.27
2023-02-14T16:26:46.945Z,39.67
2023-02-14T16:29:16.444Z,37.50
2023-02-14T16:34:42.498Z,42.73
2023-02-14T16:37:20.128Z,35.47
2023-02-14T16:39:49.282Z,44.10
2023-02-14T16:42:18.281Z,41.43
2023-02-14T16:44:46.549Z,42.47
2023-02-14T16:47:15.813Z,37.87
2023-02-14T16:49:42.717Z,44.17
2023-02-14T16:52:23.819Z,42.30
2023-02-14T16:54:54.667Z,42.50
2023-02-14T16:57:27.824Z,42.70
2023-02-14T16:59:56.417Z,43.07
2023-02-14T17:02:26.297Z,41.97
2023-02-14T17:04:53.248Z,42.27
2023-02-14T17:07:20.925Z,42.43
2023-02-14T17:09:52.771Z,41.70
2023-02-14T17:12:23.994Z,44.67
2023-02-14T17:14:56.027Z,39.23
2023-02-14T17:17:22.901Z,39.40
2023-02-14T17:19:52.642Z,43.97
2023-02-14T17:22:20.032Z,42.70
2023-02-14T17:24:46.893Z,44.10
2023-02-14T17:27:13.680Z,42.40
2023-02-14T17:29:40.491Z,43.13
2023-02-14T17:32:10.506Z,40.63
2023-02-14T17:34:37.434Z,48.80
2023-02-14T17:37:06.772Z,37.97
2023-02-14T17:39:33.692Z,41.77
2023-02-14T17:42:00.658Z,45.37
2023-02-14T17:44:32.444Z,42.90
2023-02-14T17:46:59.250Z,44.03
2023-02-14T17:49:26.784Z,50.30
2023-02-14T17:51:56.851Z,44.20
2023-02-14T17:54:24.920Z,42.30
2023-02-14T17:56:52.146Z,44.20
2023-02-14T17:59:19.037Z,41.93
2023-02-14T18:01:45.893Z,47.60
2023-02-14T18:04:12.766Z,42.03
2023-02-14T18:06:40.372Z,44.17
2023-02-14T18:09:08.039Z,47.77
2023-02-14T18:11:34.918Z,44.73
2023-02-14T18:14:01.969Z,46.03
2023-02-14T18:16:28.880Z,49.97
2023-02-14T18:18:55.796Z,43.70
2023-02-14T18:21:24.579Z,43.80
2023-02-14T18:23:51.951Z,43.87
2023-02-14T18:26:19.589Z,45.27
2023-02-14T18:28:46.644Z,48.17
2023-02-14T18:31:16.252Z,47.27
2023-02-14T18:33:43.531Z,51.90
2023-02-14T18:36:16.547Z,48.73
2023-02-14T18:38:49.689Z,47.17
2023-02-14T18:41:20.003Z,45.63
2023-02-14T18:43:48.954Z,49.57
2023-02-14T18:46:18.900Z,49.30
2023-02-14T18:48:46.049Z,49.77
2023-02-14T18:51:25.838Z,48.67
2023-02-14T18:53:54.462Z,49.17
2023-02-14T18:56:25.445Z,52.63
2023-02-14T18:58:56.677Z,49.63
2023-02-14T19:01:27.809Z,53.07
2023-02-14T19:03:55.484Z,49.83
2023-02-14T19:06:22.973Z,50.37
2023-02-14T19:08:50.198Z,52.07
2023-02-14T19:11:19.770Z,51.33
2023-02-14T19:13:48.771Z,56.77
2023-02-14T19:16:25.823Z,58.73
2023-02-14T19:18:53.829Z,53.27
2023-02-14T19:21:30.722Z,52.67
2023-02-14T19:23:58.480Z,57.67
2023-02-14T19:26:29.666Z,54.87
2023-02-14T19:29:02.014Z,50.77
2023-02-14T19:31:29.627Z,53.57
2023-02-14T19:33:56.986Z,52.37
2023-02-14T19:36:24.348Z,56.40
2023-02-14T19:38:53.015Z,48.23
2023-02-14T19:41:26.968Z,53.20
2023-02-14T19:43:59.485Z,58.80
2023-02-14T19:46:27.703Z,54.77
2023-02-14T19:48:57.128Z,54.57
2023-02-14T19:51:26.691Z,53.90
2023-02-14T19:53:55.747Z,57.80
2023-02-14T19:56:28.733Z,55.83
2023-02-14T19:58:56.885Z,54.53
2023-02-14T20:01:31.952Z,51.80
2023-02-14T20:03:58.876Z,52.17
2023-02-14T20:06:33.267Z,54.73
2023-02-14T20:09:01.814Z,51.27
2023-02-14T20:11:51.679Z,55.03
2023-02-14T20:14:20.516Z,56.00
2023-02-14T20:16:48.929Z,50.03
2023-02-14T20:19:20.885Z,55.20
2023-02-14T20:21:50.209Z,61.43
2023-02-14T20:24:20.422Z,54.23
2023-02-14T20:26:48.682Z,54.57
2023-02-14T20:29:16.830Z,55.27
2023-02-14T20:31:47.164Z,53.57
2023-02-14T20:34:14.715Z,51.77
2023-02-14T20:36:44.099Z,56.60
2023-02-14T20:39:12.867Z,58.47
2023-02-14T20:41:39.702Z,56.67
2023-02-14T20:44:08.776Z,58.53
2023-02-14T20:46:42.384Z,62.20
2023-02-14T20:49:12.114Z,54.70
2023-02-14T20:51:39.501Z,57.70
2023-02-14T20:54:06.646Z,59.13
2023-02-14T20:56:33.743Z,56.83
2023-02-14T20:59:07.689Z,57.43
2023-02-14T21:01:34.674Z,59.27
2023-02-14T21:04:01.714Z,59.77
2023-02-14T21:06:31.521Z,57.47
2023-02-14T21:08:59.320Z,63.17
2023-02-14T21:11:31.230Z,61.87
2023-02-14T21:14:00.131Z,58.60
2023-02-14T21:16:29.401Z,60.03
2023-02-14T21:19:00.842Z,61.03
2023-02-14T21:21:34.884Z,60.20
2023-02-14T21:24:10.834Z,59.20
2023-02-14T21:26:38.528Z,55.33
2023-02-14T21:29:12.856Z,56.77
2023-02-14T21:31:40.050Z,62.07
2023-02-14T21:34:07.266Z,60.73
2023-02-14T21:36:37.917Z,59.30
2023-02-14T21:39:06.215Z,55.87
2023-02-14T21:41:34.360Z,55.50
2023-02-14T21:44:02.271Z,56.13
2023-02-14T21:46:31.839Z,62.83
2023-02-14T21:49:19.038Z,63.60
2023-02-14T21:51:46.872Z,57.63
2023-02-14T21:54:14.724Z,59.87
2023-02-14T21:56:41.923Z,64.07
2023-02-14T21:59:09.807Z,62.13
2023-02-14T22:01:40.461Z,62.33
2023-02-14T22:04:10.500Z,59.90
2023-02-14T22:06:39.886Z,61.83
2023-02-14T22:09:07.464Z,60.60
2023-02-14T22:11:35.193Z,59.43
2023-02-14T22:14:02.145Z,64.97
2023-02-14T22:16:29.428Z,54.67
2023-02-14T22:18:56.296Z,60.30
2023-02-14T22:21:25.166Z,60.10
2023-02-14T22:23:52.005Z,58.17
2023-02-14T22:26:24.449Z,62.30
2023-02-14T22:28:57.105Z,57.53
2023-02-14T22:31:25.908Z,61.60
2023-02-14T22:33:53.121Z,60.77
2023-02-14T22:36:20.255Z,62.00
2023-02-14T22:38:49.590Z,59.23
2023-02-14T22:41:19.977Z,54.97
2023-02-14T22:43:47.249Z,58.73
2023-02-14T22:46:22.686Z,59.80
2023-02-14T22:48:50.507Z,52.63
2023-02-14T22:51:29.356Z,53.80
2023-02-14T22:53:59.029Z,55.47
2023-02-14T22:56:28.779Z,57.00
2023-02-14T22:59:04.834Z,54.77
2023-02-14T23:01:32.953Z,49.57
2023-02-14T23:04:01.850Z,53.70
2023-02-14T23:06:31.041Z,48.47
2023-02-14T23:08:58.547Z,53.10
2023-02-14T23:11:28.238Z,53.10
2023-02-14T23:14:14.436Z,52.80
2023-02-14T23:17:00.351Z,51.43
2023-02-14T23:19:51.322Z,52.30
2023-02-14T23:22:20.448Z,52.03
2023-02-14T23:24:52.683Z,47.87
2023-02-14T23:27:22.116Z,49.80
2023-02-14T23:29:49.057Z,49.43
2023-02-14T23:32:16.518Z,55.57
2023-02-14T23:34:45.182Z,48.23
2023-02-14T23:37:13.714Z,57.27
2023-02-14T23:39:41.391Z,51.73
2023-02-14T23:42:14.981Z,52.73
2023-02-14T23:44:43.621Z,54.63
2023-02-14T23:47:11.893Z,54.07
2023-02-14T23:49:43.405Z,57.50
2023-02-14T23:52:13.139Z,54.97
2023-02-14T23:54:40.532Z,53.73
2023-02-14T23:57:08.804Z,53.70
2023-02-14T23:59:36.155Z,59.73
